メインページ
METAR-TAF:

METAR-TAF

空港 :

旭川空港

旭川, 日本

緯度: 43-40N, 経度: 142-27E, 海抜: 208m

現時点の気象観測

当レポートは19分前の22:00(UTC)に作成
南/南東の風 7kt
気温 0°C
湿度 93%
気圧 1014 hPa
視程10km以上
高度200ftの雲はほとんどない
高度3500ftの雲は散在している

METAR: RJEC 162200Z 16007KT 9999 FEW002 SCT035 M00/M01 Q1014

時間: 07:19 (22:19 UTC)

予報

当レポートは39分前の21:40(UTC)に作成
予報は16日の 21時(UTC)から 18日の 00時(UTC)まで有効
の風 6kt
視程10km以上
高度1500ftの雲はほとんどない
高度3000ftの千切れ雲あり
16日の 22時(UTC)から 17日の 00時(UTC)まで徐々に
西/北西の風 10kt
17日の 06時(UTC)から 17日の 09時(UTC)まで一時的に
視程: 3000m
弱いにわか雪
17日の 09時(UTC)から 17日の 12時(UTC)まで徐々に
の風 5kt

TAF: RJEC 162140Z 1621/1800 18006KT 9999 FEW015 BKN030 BECMG 1622/1700 30010KT TEMPO 1706/1709 3000 -SHSN BECMG 1709/1712 17005KT

4,000以上の空港の気象観測と天気予報(METAR報とTAF報)

利用可能な観測所は地図上に黄色い丸と赤い丸で示す。

丸の上にカーソルを重ねると観測所名を参照できる。

次にクリックすると気象観測と天気予報を参照できる。

マップの切り替え:黒色「×」印の緑ボタンをクリックして拡大、「-」印の緑ボタンをクリックして縮小、緑色の三角印をクリックして隣りの地図に切り替え


METAR-TAF: